Time;durP1;ratioP1;P1;durP2;ratioP2;P2;SDS_P1;SDS_P2;PMS_P1;PMS_P2;Temp;Humidity;BMP_temperature;BMP_pressure;BME280_temperature;BME280_humidity;BME280_pressure;Samples;Min_cycle;Max_cycle;Signal;HPM_P1;HPM_P2
2021/01/19 00:02:22;;;;;;;3.90;2.30;;;0.70;99.90;;;;;;6142554;23;20175;-87
2021/01/19 00:04:48;;;;;;;2.63;2.43;;;0.60;99.90;;;;;;6137615;23;20415;-86
2021/01/19 00:07:14;;;;;;;2.93;2.40;;;0.60;99.90;;;;;;6143653;23;20184;-87
2021/01/19 00:09:39;;;;;;;2.00;1.80;;;0.60;99.90;;;;;;6146772;23;20202;-87
2021/01/19 00:12:05;;;;;;;2.50;2.03;;;0.60;99.90;;;;;;6147389;23;20168;-86
2021/01/19 00:14:31;;;;;;;4.37;2.23;;;0.70;99.90;;;;;;6146072;23;20606;-87
2021/01/19 00:16:56;;;;;;;3.77;2.30;;;0.70;99.90;;;;;;6147859;23;20255;-87
2021/01/19 00:19:22;;;;;;;4.17;2.03;;;0.70;99.90;;;;;;6146552;23;20164;-87
2021/01/19 00:21:48;;;;;;;2.40;1.80;;;0.80;99.90;;;;;;6145431;23;20161;-86
2021/01/19 00:24:13;;;;;;;2.53;2.33;;;0.80;99.90;;;;;;6146626;23;20164;-87
2021/01/19 00:26:40;;;;;;;4.17;2.27;;;0.90;99.90;;;;;;6147641;23;20657;-87
2021/01/19 00:29:06;;;;;;;2.47;1.90;;;0.90;99.90;;;;;;6143860;23;20198;-86
2021/01/19 00:31:32;;;;;;;3.17;2.20;;;1.00;99.90;;;;;;6145803;23;20716;-86
2021/01/19 00:33:58;;;;;;;3.33;2.50;;;1.00;99.90;;;;;;6149471;23;20920;-86
2021/01/19 00:36:23;;;;;;;2.30;2.10;;;1.00;99.90;;;;;;6147398;23;20188;-86
2021/01/19 00:38:49;;;;;;;3.70;2.50;;;1.10;99.90;;;;;;6146064;23;20252;-86
2021/01/19 00:41:15;;;;;;;2.70;2.20;;;1.10;99.90;;;;;;6147922;23;20235;-87
2021/01/19 00:43:40;;;;;;;2.80;2.20;;;1.10;99.90;;;;;;6146907;23;20498;-86
2021/01/19 00:46:06;;;;;;;2.33;2.13;;;1.10;99.90;;;;;;6147537;23;20157;-86
2021/01/19 00:48:32;;;;;;;6.10;2.70;;;1.00;99.90;;;;;;6145687;23;20207;-86
2021/01/19 00:50:58;;;;;;;3.83;2.20;;;1.00;99.90;;;;;;6147804;23;20215;-86
2021/01/19 00:53:24;;;;;;;2.40;2.00;;;1.00;99.90;;;;;;6146655;23;20400;-86
2021/01/19 00:55:50;;;;;;;2.30;1.93;;;1.00;99.90;;;;;;6146374;23;20714;-86
2021/01/19 00:58:15;;;;;;;4.30;2.23;;;1.00;99.90;;;;;;6146976;23;20451;-86
2021/01/19 01:00:44;;;;;;;1.97;1.40;;;0.90;99.90;;;;;;6148183;23;20168;-86
2021/01/19 01:03:10;;;;;;;3.77;2.27;;;0.90;99.90;;;;;;6146090;23;20172;-87
2021/01/19 01:05:36;;;;;;;1.73;1.63;;;0.80;99.90;;;;;;6148601;23;20805;-86
2021/01/19 01:08:02;;;;;;;4.23;1.93;;;0.80;99.90;;;;;;6146394;23;20411;-87
2021/01/19 01:10:28;;;;;;;2.40;2.20;;;0.70;99.90;;;;;;6146373;23;20192;-87
2021/01/19 01:12:54;;;;;;;3.33;2.30;;;0.70;99.90;;;;;;6144480;23;20396;-86
2021/01/19 01:15:32;;;;;;;5.23;3.93;;;0.50;99.90;;;;;;6145334;23;20404;-86
2021/01/19 01:17:58;;;;;;;5.00;2.87;;;0.50;99.90;;;;;;6145351;23;20167;-86
2021/01/19 01:20:24;;;;;;;4.03;3.70;;;0.40;99.90;;;;;;6144790;23;20477;-87
2021/01/19 01:22:50;;;;;;;4.60;4.00;;;0.40;99.90;;;;;;6145518;23;20251;-87
2021/01/19 01:25:16;;;;;;;6.00;3.57;;;0.30;99.90;;;;;;6146158;23;20769;-87
2021/01/19 01:27:43;;;;;;;3.60;3.30;;;0.30;99.90;;;;;;6145137;23;20471;-87
2021/01/19 01:30:11;;;;;;;4.40;2.97;;;0.20;99.90;;;;;;6144131;23;20909;-87
2021/01/19 01:32:51;;;;;;;2.87;2.40;;;0.30;99.90;;;;;;6143606;23;20843;-86
2021/01/19 01:35:18;;;;;;;4.60;2.53;;;0.20;99.90;;;;;;6144952;23;20490;-87
2021/01/19 01:37:49;;;;;;;4.30;2.73;;;0.20;99.90;;;;;;6145557;23;20443;-87
2021/01/19 01:40:23;;;;;;;3.40;2.27;;;0.10;99.90;;;;;;6139440;23;20404;-86
2021/01/19 01:42:56;;;;;;;3.40;2.47;;;0.10;99.90;;;;;;6146660;23;20427;-86
2021/01/19 01:45:24;;;;;;;4.30;2.93;;;0.10;99.90;;;;;;6144422;23;20912;-86
2021/01/19 01:47:51;;;;;;;3.03;2.77;;;0.00;99.90;;;;;;6146478;23;20423;-86
2021/01/19 01:50:17;;;;;;;2.80;2.60;;;0.00;99.90;;;;;;6146732;23;20440;-85
2021/01/19 01:52:43;;;;;;;3.33;3.03;;;0.00;99.90;;;;;;6143116;23;20392;-86
2021/01/19 01:55:09;;;;;;;2.77;2.47;;;-0.10;99.90;;;;;;6141196;23;20733;-86
2021/01/19 01:57:38;;;;;;;3.60;3.27;;;-0.10;99.90;;;;;;6144389;23;20391;-87
2021/01/19 02:00:06;;;;;;;2.60;2.40;;;-0.20;99.90;;;;;;6145403;23;20486;-86
2021/01/19 02:02:32;;;;;;;4.80;2.37;;;-0.30;99.90;;;;;;6144926;23;20398;-86
2021/01/19 02:04:58;;;;;;;3.30;1.90;;;-0.30;99.90;;;;;;6143012;23;20514;-86
2021/01/19 02:07:30;;;;;;;2.10;1.90;;;-0.30;99.90;;;;;;6146227;23;20615;-86
2021/01/19 02:10:14;;;;;;;2.83;2.10;;;-0.20;99.90;;;;;;6146283;23;20283;-86
2021/01/19 02:12:52;;;;;;;2.40;1.87;;;-0.20;99.90;;;;;;6143672;23;20406;-85
2021/01/19 02:15:25;;;;;;;3.50;2.10;;;-0.20;99.90;;;;;;6145536;23;20388;-86
2021/01/19 02:18:02;;;;;;;3.60;2.00;;;-0.20;99.90;;;;;;6144342;23;20407;-86
2021/01/19 02:20:57;;;;;;;2.20;1.80;;;-0.20;99.90;;;;;;6146269;23;20392;-87
2021/01/19 02:23:32;;;;;;;2.50;1.93;;;-0.20;99.90;;;;;;6144282;23;21251;-88
2021/01/19 02:25:57;;;;;;;1.90;1.80;;;-0.10;99.90;;;;;;6145155;23;20427;-86
2021/01/19 02:28:41;;;;;;;2.73;1.80;;;-0.10;99.90;;;;;;6145592;23;20399;-86
2021/01/19 02:31:44;;;;;;;4.60;2.20;;;-0.20;99.90;;;;;;6144623;23;20172;-86
2021/01/19 02:34:31;;;;;;;2.60;1.90;;;-0.10;99.90;;;;;;6144722;23;20475;-86
2021/01/19 02:37:10;;;;;;;2.60;1.70;;;-0.20;99.90;;;;;;6142214;23;20404;-87
2021/01/19 02:39:39;;;;;;;3.20;2.00;;;-0.10;99.90;;;;;;6143527;23;20465;-86
2021/01/19 02:42:09;;;;;;;4.40;3.73;;;-0.10;99.90;;;;;;6143413;23;20742;-86
2021/01/19 02:44:37;;;;;;;3.03;1.93;;;0.00;99.90;;;;;;6143731;23;20399;-86
2021/01/19 02:47:04;;;;;;;1.87;1.77;;;0.00;99.90;;;;;;6144811;23;20670;-87
2021/01/19 02:49:47;;;;;;;3.40;2.40;;;-0.10;99.90;;;;;;6144214;23;20538;-86
2021/01/19 02:52:14;;;;;;;4.07;2.80;;;-0.10;99.90;;;;;;6144767;23;20395;-87
2021/01/19 02:54:42;;;;;;;3.40;1.73;;;-0.20;99.90;;;;;;6146001;23;20396;-87
2021/01/19 02:57:33;;;;;;;3.87;1.70;;;-0.30;99.90;;;;;;6143704;23;20409;-86
2021/01/19 03:00:10;;;;;;;4.07;2.60;;;-0.30;99.90;;;;;;6145177;23;20421;-86
2021/01/19 03:02:39;;;;;;;4.53;2.40;;;-0.40;99.90;;;;;;6144689;23;20453;-88
2021/01/19 03:05:09;;;;;;;2.40;2.13;;;-0.50;99.90;;;;;;6143217;23;20470;-87
2021/01/19 03:07:38;;;;;;;3.10;2.33;;;-0.60;99.90;;;;;;6145189;23;20384;-87
2021/01/19 03:10:05;;;;;;;2.40;2.20;;;-0.50;99.90;;;;;;6144630;23;20440;-87
2021/01/19 03:12:33;;;;;;;2.67;2.40;;;-0.60;99.90;;;;;;6145156;23;20630;-87
2021/01/19 03:15:00;;;;;;;4.53;2.35;;;-0.60;99.90;;;;;;6145045;23;20454;-87
2021/01/19 03:17:25;;;;;;;3.20;2.30;;;-0.60;99.90;;;;;;6145774;23;20164;-86
2021/01/19 03:19:51;;;;;;;3.80;2.23;;;-0.50;99.90;;;;;;6139609;23;20407;-87
2021/01/19 03:22:17;;;;;;;2.87;2.10;;;-0.40;99.90;;;;;;6143188;23;20175;-87
2021/01/19 03:24:43;;;;;;;2.00;1.77;;;-0.50;99.90;;;;;;6145849;23;20893;-86
2021/01/19 03:27:09;;;;;;;5.77;3.20;;;-0.60;99.90;;;;;;6143712;23;20168;-87
2021/01/19 03:29:35;;;;;;;2.33;2.10;;;-0.50;99.90;;;;;;6144873;23;20196;-86
2021/01/19 03:32:03;;;;;;;3.45;2.25;;;-0.50;99.90;;;;;;6142211;23;20398;-86
2021/01/19 03:34:28;;;;;;;3.43;2.43;;;-0.60;99.90;;;;;;6145563;23;20584;-86
2021/01/19 03:36:54;;;;;;;2.43;2.23;;;-0.50;99.90;;;;;;6143364;23;20392;-86
2021/01/19 03:39:21;;;;;;;2.30;2.10;;;-0.60;99.90;;;;;;6143725;23;21076;-86
2021/01/19 03:41:46;;;;;;;2.70;2.30;;;-0.50;99.90;;;;;;6145251;23;20167;-86
2021/01/19 03:44:14;;;;;;;6.00;2.50;;;-0.50;99.90;;;;;;6144416;23;20395;-86
2021/01/19 03:46:40;;;;;;;3.00;2.50;;;-0.50;99.90;;;;;;6143913;23;20164;-87
2021/01/19 03:49:05;;;;;;;2.73;1.63;;;-0.50;99.90;;;;;;6144514;23;20534;-87
2021/01/19 03:51:31;;;;;;;2.73;2.00;;;-0.50;99.90;;;;;;6144053;23;20460;-86
2021/01/19 03:53:56;;;;;;;2.00;1.90;;;-0.50;99.90;;;;;;6142412;23;20673;-88
2021/01/19 03:56:22;;;;;;;2.80;1.93;;;-0.50;99.90;;;;;;6144354;23;20432;-86
2021/01/19 03:58:48;;;;;;;3.60;1.83;;;-0.40;99.90;;;;;;6143664;23;20160;-86
2021/01/19 04:01:14;;;;;;;3.40;2.20;;;-0.40;99.90;;;;;;6142130;23;20192;-86
2021/01/19 04:03:40;;;;;;;2.47;1.90;;;-0.40;99.90;;;;;;6141861;23;20411;-87
2021/01/19 04:06:07;;;;;;;5.70;2.40;;;-0.40;99.90;;;;;;6143492;23;20929;-86
2021/01/19 04:08:36;;;;;;;3.60;1.73;;;-0.40;99.90;;;;;;6144352;23;20219;-86
2021/01/19 04:11:04;;;;;;;2.53;2.27;;;-0.30;99.90;;;;;;6144705;23;20433;-87
2021/01/19 04:13:30;;;;;;;2.37;1.90;;;-0.30;99.90;;;;;;6143883;23;20392;-86
2021/01/19 04:15:56;;;;;;;2.33;2.10;;;-0.20;99.90;;;;;;6143454;23;20727;-86
2021/01/19 04:18:22;;;;;;;2.63;2.37;;;-0.10;99.90;;;;;;6143658;23;20395;-87
2021/01/19 04:20:48;;;;;;;2.90;2.23;;;-0.10;99.90;;;;;;6146187;23;20400;-86
2021/01/19 04:23:14;;;;;;;4.10;2.40;;;-0.10;99.90;;;;;;6143295;23;20442;-86
2021/01/19 04:25:50;;;;;;;5.40;2.23;;;-0.10;99.90;;;;;;6144993;23;20479;-86
2021/01/19 04:28:16;;;;;;;4.30;2.70;;;-0.10;99.90;;;;;;6144131;23;20164;-87
2021/01/19 04:30:44;;;;;;;4.93;2.10;;;0.00;99.90;;;;;;6145021;23;20407;-87
2021/01/19 04:33:13;;;;;;;2.10;1.90;;;0.00;99.90;;;;;;6145190;23;20399;-87
2021/01/19 04:35:40;;;;;;;2.20;1.90;;;0.00;99.90;;;;;;6145714;23;20395;-87
2021/01/19 04:38:06;;;;;;;2.43;2.07;;;0.00;99.90;;;;;;6146966;23;20395;-87
2021/01/19 04:40:31;;;;;;;2.27;2.03;;;0.00;99.90;;;;;;6144942;23;20402;-86
2021/01/19 04:42:57;;;;;;;1.80;1.70;;;0.00;99.90;;;;;;6143848;23;20215;-86
2021/01/19 04:45:24;;;;;;;3.33;2.00;;;0.10;99.90;;;;;;6140069;23;20542;-86
2021/01/19 04:47:50;;;;;;;4.60;4.13;;;0.00;99.90;;;;;;6142292;23;20164;-86
2021/01/19 04:50:16;;;;;;;3.10;1.83;;;0.10;99.90;;;;;;6144902;23;20466;-85
2021/01/19 04:52:44;;;;;;;2.93;1.90;;;0.00;99.90;;;;;;6146956;23;20404;-87
2021/01/19 04:55:12;;;;;;;2.13;1.93;;;0.10;99.90;;;;;;6146401;23;20626;-85
2021/01/19 04:57:42;;;;;;;1.70;1.60;;;0.10;99.90;;;;;;6143963;23;20407;-86
2021/01/19 05:00:12;;;;;;;4.03;2.23;;;0.00;99.90;;;;;;6144189;23;21097;-86
2021/01/19 05:03:02;;;;;;;2.73;1.97;;;0.00;99.90;;;;;;6145733;23;20791;-86
2021/01/19 05:05:37;;;;;;;2.73;2.07;;;0.10;99.90;;;;;;6146735;23;20453;-86
2021/01/19 05:08:02;;;;;;;1.53;1.40;;;0.00;99.90;;;;;;6146328;23;20399;-86
2021/01/19 05:10:36;;;;;;;2.40;2.20;;;-0.10;99.90;;;;;;6146915;23;20968;-86
2021/01/19 05:13:10;;;;;;;2.60;2.40;;;0.00;99.90;;;;;;6146034;23;20244;-86
2021/01/19 05:15:48;;;;;;;4.50;2.57;;;-0.10;99.90;;;;;;6145960;23;20466;-86
2021/01/19 05:18:17;;;;;;;4.50;2.10;;;-0.10;99.90;;;;;;6147510;23;20896;-86
2021/01/19 05:20:50;;;;;;;2.40;2.20;;;-0.20;99.90;;;;;;6145411;23;20424;-86
2021/01/19 05:23:24;;;;;;;5.67;2.30;;;-0.20;99.90;;;;;;6144656;23;20403;-86
2021/01/19 05:25:53;;;;;;;2.33;2.13;;;-0.20;99.90;;;;;;6146032;23;20415;-86
2021/01/19 05:28:27;;;;;;;2.77;2.53;;;-0.30;99.90;;;;;;6142635;23;20395;-88
2021/01/19 05:30:53;;;;;;;2.57;2.27;;;-0.30;99.90;;;;;;6150613;23;20399;-91
2021/01/19 05:33:19;;;;;;;1.90;1.70;;;-0.30;99.90;;;;;;6151219;23;20427;-89
2021/01/19 05:35:44;;;;;;;3.90;1.87;;;-0.30;99.90;;;;;;6150607;23;20627;-89
2021/01/19 05:38:10;;;;;;;4.70;2.30;;;-0.30;99.90;;;;;;6147410;23;20170;-90
2021/01/19 05:40:45;;;;;;;3.40;2.30;;;-0.30;99.90;;;;;;6147978;23;21063;-89
2021/01/19 05:43:14;;;;;;;2.83;2.00;;;-0.30;99.90;;;;;;6153022;23;20172;-89
2021/01/19 05:45:50;;;;;;;2.30;2.10;;;-0.30;99.90;;;;;;6149148;23;20400;-91
2021/01/19 05:48:17;;;;;;;3.70;2.57;;;-0.20;99.90;;;;;;6150664;23;20399;-91
2021/01/19 05:50:43;;;;;;;2.67;1.73;;;-0.20;99.90;;;;;;6150320;23;20739;-90
2021/01/19 05:53:15;;;;;;;2.63;1.90;;;-0.30;99.90;;;;;;6149217;23;20404;-91
2021/01/19 05:55:48;;;;;;;3.63;2.43;;;-0.20;99.90;;;;;;6149031;23;20503;-92
2021/01/19 05:58:15;;;;;;;3.93;2.20;;;-0.20;99.90;;;;;;6149609;23;20404;-91
2021/01/19 06:00:42;;;;;;;3.50;2.43;;;-0.20;99.90;;;;;;6149908;23;20396;-91
2021/01/19 06:03:16;;;;;;;2.17;1.93;;;-0.20;99.90;;;;;;6149951;23;20404;-91
2021/01/19 06:05:42;;;;;;;3.60;2.40;;;-0.20;99.90;;;;;;6151004;23;20419;-91
2021/01/19 06:08:10;;;;;;;2.70;2.50;;;-0.30;99.90;;;;;;6150234;23;20168;-92
2021/01/19 06:10:36;;;;;;;3.83;2.40;;;-0.30;99.90;;;;;;6147479;23;20524;-91
2021/01/19 06:13:02;;;;;;;2.63;2.17;;;-0.30;99.90;;;;;;6146403;23;20398;-91
2021/01/19 06:15:29;;;;;;;3.77;3.00;;;-0.40;99.90;;;;;;6148562;23;20883;-93
2021/01/19 06:17:56;;;;;;;2.63;2.40;;;-0.40;99.90;;;;;;6150620;23;20400;-93
2021/01/19 06:20:21;;;;;;;2.83;2.60;;;-0.50;99.90;;;;;;6150376;23;20392;-91
2021/01/19 06:22:47;;;;;;;3.50;2.60;;;-0.50;99.90;;;;;;6148696;23;20731;-91
2021/01/19 06:25:13;;;;;;;4.23;2.80;;;-0.50;99.90;;;;;;6149409;23;20164;-90
2021/01/19 06:27:40;;;;;;;2.93;2.30;;;-0.50;99.90;;;;;;6149526;23;20404;-92
2021/01/19 06:30:16;;;;;;;5.63;3.20;;;-0.50;99.90;;;;;;6176538;23;20449;-92
2021/01/19 06:32:48;;;;;;;3.37;2.70;;;-0.50;99.90;;;;;;6149867;23;20447;-93
2021/01/19 06:35:24;;;;;;;5.50;2.90;;;-0.60;99.90;;;;;;6149575;23;20640;-91
2021/01/19 06:37:53;;;;;;;3.43;2.33;;;-0.50;99.90;;;;;;6154894;23;20481;-92
2021/01/19 06:40:24;;;;;;;3.23;2.43;;;-0.60;99.90;;;;;;6150747;23;20391;-94
2021/01/19 06:43:04;;;;;;;5.00;2.83;;;-0.50;99.90;;;;;;6149021;23;20472;-91
2021/01/19 06:45:32;;;;;;;3.22;2.33;;;-0.50;99.90;;;;;;6152805;23;20403;-93
2021/01/19 06:48:02;;;;;;;5.20;3.20;;;-0.50;99.90;;;;;;6151357;23;20164;-92
2021/01/19 06:50:44;;;;;;;4.20;2.93;;;-0.50;99.90;;;;;;6148314;23;20446;-93
2021/01/19 06:53:27;;;;;;;5.00;2.93;;;-0.60;99.90;;;;;;6148698;23;20471;-93
2021/01/19 06:55:59;;;;;;;6.03;3.50;;;-0.70;99.90;;;;;;6150444;23;20396;-94
2021/01/19 06:58:46;;;;;;;5.93;4.13;;;-0.70;99.90;;;;;;6151369;23;20754;-93
2021/01/19 07:01:14;;;;;;;6.00;3.70;;;-0.80;99.90;;;;;;6149742;23;20403;-93
2021/01/19 07:03:44;;;;;;;6.07;3.53;;;-0.80;99.90;;;;;;6152903;23;20481;-93
2021/01/19 07:06:12;;;;;;;7.50;4.70;;;-0.80;99.90;;;;;;6152758;23;20438;-92
2021/01/19 07:09:03;;;;;;;3.80;3.17;;;-0.90;99.90;;;;;;6149708;23;20431;-94
2021/01/19 07:11:38;;;;;;;6.07;2.90;;;-0.90;99.90;;;;;;6150558;23;20407;-94
2021/01/19 07:14:11;;;;;;;3.10;2.80;;;-0.90;99.90;;;;;;6160383;23;20399;-93
2021/01/19 07:16:55;;;;;;;5.83;3.20;;;-0.90;99.90;;;;;;6149978;23;20450;-92
2021/01/19 07:19:46;;;;;;;4.50;3.00;;;-0.90;99.90;;;;;;6151853;23;20956;-93
2021/01/19 07:22:43;;;;;;;4.03;3.27;;;-0.90;99.90;;;;;;6148148;23;20469;-93
2021/01/19 07:25:11;;;;;;;3.47;3.07;;;-0.90;99.90;;;;;;6147774;23;20414;-92
2021/01/19 07:27:37;;;;;;;4.40;3.50;;;-1.00;99.90;;;;;;6149812;23;20434;-93
2021/01/19 07:30:06;;;;;;;5.10;2.50;;;-1.00;99.90;;;;;;6149941;23;20490;-94
2021/01/19 07:32:33;;;;;;;3.20;2.90;;;-1.10;99.90;;;;;;6151480;23;20391;-93
2021/01/19 07:34:59;;;;;;;3.37;2.70;;;-1.10;99.90;;;;;;6146221;23;20665;-91
2021/01/19 07:37:33;;;;;;;3.77;2.60;;;-1.20;99.90;;;;;;6147858;23;20475;-93
2021/01/19 07:39:59;;;;;;;3.70;2.97;;;-1.20;99.90;;;;;;6150188;23;20458;-93
2021/01/19 07:42:31;;;;;;;5.40;3.13;;;-1.20;99.90;;;;;;6149697;23;20403;-93
2021/01/19 07:45:01;;;;;;;5.03;3.07;;;-1.20;99.90;;;;;;6147895;23;21044;-90
2021/01/19 07:47:41;;;;;;;4.07;3.27;;;-1.20;99.90;;;;;;6149551;23;20881;-91
2021/01/19 07:50:16;;;;;;;4.33;3.20;;;-1.20;99.90;;;;;;6151642;23;20447;-96
2021/01/19 07:52:47;;;;;;;4.80;3.90;;;-1.20;99.90;;;;;;6151286;23;20858;-90
2021/01/19 07:55:17;;;;;;;3.40;3.10;;;-1.10;99.90;;;;;;6150142;23;20414;-92
2021/01/19 07:57:53;;;;;;;15.17;9.80;;;-0.90;99.90;;;;;;6176792;23;20779;-91
2021/01/19 08:00:26;;;;;;;5.80;5.00;;;-0.80;99.90;;;;;;6150224;23;20399;-91
2021/01/19 08:03:05;;;;;;;6.80;4.37;;;-0.70;99.90;;;;;;6150696;23;20407;-90
2021/01/19 08:05:31;;;;;;;9.27;7.70;;;-0.60;99.90;;;;;;6149056;23;20721;-92
2021/01/19 08:07:57;;;;;;;5.10;3.60;;;-0.50;99.90;;;;;;6147823;23;20438;-91
2021/01/19 08:10:27;;;;;;;6.87;3.90;;;-0.30;99.90;;;;;;6145943;23;20439;-93
2021/01/19 08:12:55;;;;;;;4.83;4.17;;;-0.30;99.90;;;;;;6148525;23;20403;-94
2021/01/19 08:15:34;;;;;;;5.30;4.00;;;0.00;99.90;;;;;;6149738;23;20396;-96
2021/01/19 08:18:04;;;;;;;4.43;3.30;;;0.20;99.90;;;;;;6145973;23;21221;-94
2021/01/19 08:20:37;;;;;;;3.83;2.90;;;0.50;99.90;;;;;;6147177;23;20462;-89
2021/01/19 08:23:16;;;;;;;5.23;3.30;;;0.70;99.90;;;;;;6147266;23;20394;-91
2021/01/19 08:25:45;;;;;;;6.70;2.90;;;1.00;99.90;;;;;;6146396;23;20164;-84
2021/01/19 08:28:13;;;;;;;5.80;3.50;;;1.10;99.90;;;;;;6146416;23;20383;-82
2021/01/19 08:30:40;;;;;;;5.97;4.30;;;1.20;99.90;;;;;;6145912;23;20435;-93
2021/01/19 08:33:23;;;;;;;5.40;3.70;;;1.70;99.90;;;;;;6177409;23;20388;-94
2021/01/19 08:35:58;;;;;;;4.67;3.20;;;1.90;99.90;;;;;;6176245;23;20410;-94
2021/01/19 08:38:24;;;;;;;6.60;4.30;;;1.90;99.90;;;;;;6153976;23;20403;-93
2021/01/19 08:41:01;;;;;;;4.47;3.07;;;2.20;99.90;;;;;;6152010;23;20396;-94
2021/01/19 08:43:48;;;;;;;4.43;3.93;;;2.30;99.90;;;;;;6161620;23;20247;-96
2021/01/19 08:46:15;;;;;;;3.73;3.10;;;2.50;99.90;;;;;;6140056;23;20415;-96
2021/01/19 08:48:42;;;;;;;3.23;2.90;;;2.90;99.90;;;;;;6135777;23;721170;-95
2021/01/19 08:51:19;;;;;;;5.90;3.77;;;3.10;99.90;;;;;;6154056;23;20468;-90
2021/01/19 08:53:55;;;;;;;3.87;2.90;;;2.60;99.90;;;;;;6150064;23;20424;-95
2021/01/19 08:56:26;;;;;;;3.13;2.83;;;2.50;99.90;;;;;;6100054;23;20709;-94
2021/01/19 08:58:53;;;;;;;5.00;3.00;;;2.40;99.90;;;;;;6125512;23;20439;-91
2021/01/19 09:01:20;;;;;;;3.80;2.83;;;2.20;99.90;;;;;;6120625;23;20431;-93
2021/01/19 09:04:00;;;;;;;3.40;3.10;;;2.20;99.90;;;;;;6122899;23;20416;-93
2021/01/19 09:06:27;;;;;;;3.13;2.83;;;2.10;99.90;;;;;;6124670;23;20427;-93
2021/01/19 09:08:59;;;;;;;4.83;3.37;;;2.10;99.90;;;;;;6130978;23;20428;-95
2021/01/19 09:11:43;;;;;;;6.37;4.40;;;1.80;99.90;;;;;;6110645;23;20438;-96
2021/01/19 09:14:10;;;;;;;6.33;4.67;;;1.70;99.90;;;;;;6189852;23;20396;-93
2021/01/19 09:16:38;;;;;;;14.63;7.47;;;1.70;99.90;;;;;;6156244;23;20384;-96
2021/01/19 09:19:10;;;;;;;4.30;3.40;;;1.80;99.90;;;;;;6157385;23;20464;-93
2021/01/19 09:21:39;;;;;;;8.00;4.00;;;1.80;99.90;;;;;;6151633;23;21079;-95
2021/01/19 09:24:20;;;;;;;3.80;3.20;;;1.80;99.90;;;;;;6161004;23;20443;-96
2021/01/19 09:26:57;;;;;;;5.50;4.10;;;1.80;99.90;;;;;;6155845;23;20387;-95
2021/01/19 09:29:26;;;;;;;6.67;4.00;;;1.80;99.90;;;;;;6167577;23;20509;-95
2021/01/19 09:31:52;;;;;;;6.40;4.20;;;1.90;99.90;;;;;;6155519;23;20419;-92
2021/01/19 09:34:21;;;;;;;6.10;4.50;;;1.90;99.90;;;;;;6154818;23;20462;-90
2021/01/19 09:36:50;;;;;;;5.90;3.80;;;1.90;99.90;;;;;;6149865;23;20460;-89
2021/01/19 09:39:27;;;;;;;6.77;5.17;;;1.90;99.90;;;;;;6148199;23;20439;-89
2021/01/19 09:41:57;;;;;;;6.00;4.93;;;1.90;99.90;;;;;;6149157;23;20409;-93
2021/01/19 09:44:24;;;;;;;6.30;4.90;;;1.90;99.90;;;;;;6149553;23;20442;-90
2021/01/19 09:46:53;;;;;;;5.13;4.30;;;2.00;99.90;;;;;;6150501;23;20457;-90
2021/01/19 09:49:23;;;;;;;6.77;4.00;;;1.80;99.90;;;;;;6152328;23;20777;-92
2021/01/19 09:51:50;;;;;;;8.33;5.80;;;1.90;99.90;;;;;;6151402;23;20908;-92
2021/01/19 09:54:40;;;;;;;7.20;4.37;;;1.90;99.90;;;;;;6159001;23;20403;-95
2021/01/19 09:57:08;;;;;;;6.00;4.77;;;2.00;99.90;;;;;;6171936;23;20396;-93
2021/01/19 09:59:35;;;;;;;9.40;4.40;;;2.20;99.90;;;;;;6155028;23;20399;-94
2021/01/19 10:02:01;;;;;;;7.47;4.10;;;2.20;99.90;;;;;;6155470;23;20503;-94
2021/01/19 10:04:28;;;;;;;5.20;4.13;;;2.10;99.90;;;;;;6157649;23;20400;-95
2021/01/19 10:07:08;;;;;;;5.10;3.47;;;2.10;99.90;;;;;;6166013;23;20392;-95
2021/01/19 10:09:40;;;;;;;5.97;3.90;;;2.20;99.90;;;;;;6159755;23;20443;-94
2021/01/19 10:14:59;;;;;;;4.10;3.70;;;2.60;99.90;;;;;;6172733;23;20450;-95
2021/01/19 10:17:30;;;;;;;7.23;3.83;;;2.50;99.90;;;;;;6171336;23;20384;-94
2021/01/19 10:20:16;;;;;;;6.17;3.93;;;2.50;99.90;;;;;;6165774;23;20418;-96
2021/01/19 10:22:46;;;;;;;7.00;4.10;;;2.40;99.90;;;;;;6179354;23;20487;-96
2021/01/19 10:25:32;;;;;;;3.83;3.43;;;2.30;99.90;;;;;;6179623;23;20434;-96
2021/01/19 10:28:15;;;;;;;6.27;4.23;;;2.20;99.90;;;;;;6177779;23;20388;-94
2021/01/19 10:33:56;;;;;;;4.33;3.87;;;2.00;99.90;;;;;;6168506;23;20672;-96
2021/01/19 10:36:26;;;;;;;7.37;3.90;;;2.10;99.90;;;;;;6160445;23;20436;-95
2021/01/19 10:39:06;;;;;;;5.77;4.07;;;2.10;99.90;;;;;;6156043;23;20397;-94
2021/01/19 10:41:32;;;;;;;5.13;3.67;;;2.10;99.90;;;;;;6160391;23;20372;-93
2021/01/19 10:43:59;;;;;;;6.83;3.63;;;2.10;99.90;;;;;;6164630;23;20417;-94
2021/01/19 10:46:32;;;;;;;3.57;3.23;;;2.20;99.90;;;;;;6169112;23;20412;-96
2021/01/19 10:49:03;;;;;;;5.97;3.70;;;2.20;99.90;;;;;;6182810;23;20479;-93
2021/01/19 10:51:29;;;;;;;7.83;4.23;;;2.20;99.90;;;;;;6156278;23;20372;-90
2021/01/19 10:54:05;;;;;;;6.93;5.20;;;2.40;99.90;;;;;;6154836;23;20392;-90
2021/01/19 10:56:30;;;;;;;4.63;3.30;;;2.50;99.90;;;;;;6147356;23;20654;-92
2021/01/19 10:58:58;;;;;;;5.37;3.17;;;2.50;99.90;;;;;;6148047;23;20788;-92
2021/01/19 11:04:03;;;;;;;4.23;3.57;;;2.70;99.90;;;;;;6120282;23;20429;-93
2021/01/19 11:06:37;;;;;;;5.30;3.80;;;2.80;99.90;;;;;;6115751;23;20397;-91
2021/01/19 11:09:04;;;;;;;8.00;3.33;;;2.80;99.90;;;;;;6111972;23;20544;-91
2021/01/19 11:11:31;;;;;;;4.10;3.13;;;2.90;99.90;;;;;;6114130;23;20426;-91
2021/01/19 11:14:02;;;;;;;5.40;3.20;;;2.90;99.90;;;;;;6113843;23;20401;-89
2021/01/19 11:16:33;;;;;;;3.37;3.07;;;2.90;99.90;;;;;;6114013;23;20883;-90
2021/01/19 11:19:00;;;;;;;4.87;3.50;;;2.90;99.90;;;;;;6114733;23;20401;-90
2021/01/19 11:21:26;;;;;;;6.20;3.87;;;2.90;99.90;;;;;;6113812;23;20405;-91
2021/01/19 11:23:55;;;;;;;3.90;3.13;;;2.90;99.90;;;;;;6114887;23;20491;-91
2021/01/19 11:26:21;;;;;;;4.20;3.50;;;2.80;99.90;;;;;;6114955;23;20387;-92
2021/01/19 11:28:47;;;;;;;4.47;3.40;;;2.90;99.90;;;;;;6114708;23;20931;-90
2021/01/19 11:31:21;;;;;;;4.43;3.00;;;3.00;99.90;;;;;;6113321;23;20492;-90
2021/01/19 11:33:47;;;;;;;6.70;3.33;;;3.00;99.90;;;;;;6113445;23;20164;-91
2021/01/19 11:36:36;;;;;;;3.63;3.00;;;2.90;99.90;;;;;;6114002;23;20935;-88
2021/01/19 11:39:04;;;;;;;5.80;3.90;;;2.90;99.90;;;;;;6112812;23;20173;-89
2021/01/19 11:41:30;;;;;;;5.00;2.90;;;3.00;99.90;;;;;;6112380;23;20884;-88
2021/01/19 11:43:56;;;;;;;5.63;3.13;;;3.00;99.90;;;;;;6113511;23;20405;-88
2021/01/19 11:46:27;;;;;;;4.13;3.03;;;3.00;99.90;;;;;;6113941;23;20169;-88
2021/01/19 11:51:30;;;;;;;3.23;2.93;;;2.90;99.90;;;;;;6113777;23;20409;-93
2021/01/19 11:53:59;;;;;;;4.90;3.30;;;3.00;99.90;;;;;;6111987;23;20417;-90
2021/01/19 11:56:52;;;;;;;3.87;3.10;;;3.00;99.90;;;;;;6109823;23;20413;-88
2021/01/19 11:59:19;;;;;;;5.80;3.20;;;3.10;99.90;;;;;;6110375;23;20437;-84
2021/01/19 12:01:52;;;;;;;4.77;3.70;;;3.10;99.90;;;;;;6109348;23;20390;-85
2021/01/19 12:04:18;;;;;;;4.73;3.20;;;3.10;99.90;;;;;;6110766;23;20397;-84
2021/01/19 12:06:43;;;;;;;5.57;3.60;;;3.20;99.90;;;;;;6110021;23;20448;-84
2021/01/19 12:09:10;;;;;;;4.40;3.43;;;3.20;99.90;;;;;;6107871;23;20220;-84
2021/01/19 12:11:48;;;;;;;5.03;3.40;;;3.20;99.90;;;;;;6109060;23;20595;-83
2021/01/19 12:14:15;;;;;;;3.33;3.00;;;3.30;99.90;;;;;;6108784;23;20410;-84
2021/01/19 12:16:40;;;;;;;5.00;3.70;;;3.40;99.90;;;;;;6111203;23;20550;-86
2021/01/19 12:19:10;;;;;;;4.47;3.23;;;3.50;99.90;;;;;;6111032;23;20438;-84
2021/01/19 12:21:37;;;;;;;4.90;3.17;;;3.50;99.90;;;;;;6110687;23;20195;-84
2021/01/19 12:24:04;;;;;;;4.80;3.20;;;3.60;99.90;;;;;;6110699;23;20876;-84
2021/01/19 12:26:30;;;;;;;3.90;3.10;;;3.70;99.90;;;;;;6110560;23;20397;-84
2021/01/19 12:28:56;;;;;;;4.83;3.20;;;3.70;99.90;;;;;;6110730;23;20440;-84
2021/01/19 12:31:21;;;;;;;4.83;3.30;;;3.80;99.90;;;;;;6108366;23;20169;-83
2021/01/19 12:33:47;;;;;;;10.93;3.40;;;3.80;99.90;;;;;;6109221;23;20705;-85
2021/01/19 12:36:13;;;;;;;4.70;3.40;;;3.70;99.90;;;;;;6108422;23;20174;-82
2021/01/19 12:38:38;;;;;;;3.33;2.60;;;3.80;99.90;;;;;;6109059;23;20381;-84
2021/01/19 12:41:04;;;;;;;3.23;2.43;;;3.80;99.90;;;;;;6110966;23;20171;-84
2021/01/19 12:43:30;;;;;;;3.30;3.00;;;3.80;99.90;;;;;;6109612;23;20243;-84
2021/01/19 12:45:56;;;;;;;3.80;2.60;;;3.90;99.90;;;;;;6110398;23;20501;-88
2021/01/19 12:48:22;;;;;;;3.30;2.70;;;3.80;99.90;;;;;;6112424;23;20228;-84
2021/01/19 12:50:48;;;;;;;3.20;2.40;;;4.00;99.90;;;;;;6110433;23;20197;-84
2021/01/19 12:53:13;;;;;;;2.37;2.10;;;4.00;99.90;;;;;;6110081;23;20165;-83
2021/01/19 12:55:39;;;;;;;2.93;2.67;;;4.00;99.90;;;;;;6111215;23;20488;-85
2021/01/19 12:58:05;;;;;;;5.10;2.43;;;4.00;99.90;;;;;;6110297;23;20253;-83
2021/01/19 13:00:31;;;;;;;2.53;1.80;;;4.00;99.90;;;;;;6112686;23;20487;-84
2021/01/19 13:02:57;;;;;;;2.80;2.27;;;4.10;99.90;;;;;;6108679;23;20184;-84
2021/01/19 13:05:22;;;;;;;3.90;2.43;;;4.10;99.90;;;;;;6110985;23;20729;-82
2021/01/19 13:07:48;;;;;;;2.83;2.63;;;4.10;99.90;;;;;;6112019;23;20496;-83
2021/01/19 13:10:14;;;;;;;2.43;2.20;;;4.10;99.90;;;;;;6112141;23;20268;-82
2021/01/19 13:12:40;;;;;;;5.47;1.77;;;4.10;99.90;;;;;;6112686;23;20170;-83
2021/01/19 13:15:10;;;;;;;3.00;2.07;;;4.10;99.90;;;;;;6113376;23;20459;-83
2021/01/19 13:17:38;;;;;;;3.17;2.10;;;4.10;99.90;;;;;;6111875;23;20760;-83
2021/01/19 13:20:05;;;;;;;3.27;2.80;;;4.20;99.90;;;;;;6112124;23;20496;-82